TOP > 外国特許検索

外国特許検索

表示件数 詳細検索
特許の状態
出願国

リセット

該当件数 4753件

No. 出願番号
公報番号
出願国
発明の名称
掲載日
更新日
データ提供機関
2401 2014JP060229 WO 2014171372 世界知的所有権機関(WIPO) GAS DETECTION DEVICE, GAS DETECTION METHOD, AND OPTICAL COMPONENT 2015/06/12 2015/08/24 横浜国立大学
2402 2014JP074356 WO 2015041200 世界知的所有権機関(WIPO) DRIVE DEVICE 2015/07/13 2015/08/24 横浜国立大学
2403 2015JP055356 WO 2015133344 世界知的所有権機関(WIPO) MODE MULTIPLEXER 2015/11/26 2015/11/26 横浜国立大学
2404 2015JP055966 WO 2015146490 世界知的所有権機関(WIPO) OXYGEN REDUCTION CATALYST AND PRODUCTION METHOD THEREFOR 2015/12/16 2015/12/16 横浜国立大学
2405 2015JP065242 WO 2016006351 世界知的所有権機関(WIPO) PLANT RESISTANCE INDUCING CONTROL AGENT, PLANT RESISTANCE INDUCING CONTROL METHOD, PLANT DISEASE PREVENTION METHOD, INSECT PREVENTION METHOD, PLANT GROWTH PROMOTER, MICROBIAL INFECTION EFFICIENCY PROMOTER, AND TRANSGENE EXPRESSION EFFICIENCY PROMOTER 2016/02/18 2016/02/18 横浜国立大学
2406 2016JP073965 WO 2017030137 世界知的所有権機関(WIPO) TRANSMISSION DEVICE AND TRANSMISSION METHOD 2017/03/29 2019/04/19 横浜国立大学
2407 2016JP084752 WO 2017104368 世界知的所有権機関(WIPO) OPTICAL FABRICATION DEVICE 新技術説明会 2017/07/07 2017/07/07 横浜国立大学
2408 2017JP021022 WO 2017213151 世界知的所有権機関(WIPO) PLANETARY GEAR DEVICE AND PROGRAM FOR DESIGNING PLANETARY GEAR DEVICE 新技術説明会 2018/01/24 2019/04/19 横浜国立大学
2409 2017JP021770 WO 2017217393 世界知的所有権機関(WIPO) CELL-EMBEDDED BEADS FOR HAIR REGENERATION AND METHOD FOR PRODUCING SAME, AND KIT FOR HAIR REGENERATION 2018/01/24 2019/04/19 横浜国立大学
2410 2018JP001290 WO 2018135552 世界知的所有権機関(WIPO) PLANETARY GEAR DEVICE 2018/11/02 2019/02/01 横浜国立大学
2411 2018JP007541 WO 2018159689 世界知的所有権機関(WIPO) METHOD FOR OBSERVING INNER STRUCTURE OF CERAMIC, METHOD FOR PRODUCING CERAMIC, ANALYSIS SYSTEM, AND SYSTEM FOR PRODUCING CERAMIC 新技術説明会 2018/11/02 2019/02/01 横浜国立大学
2412 2018JP013970 WO 2018182013 世界知的所有権機関(WIPO) HEATING-TYPE LIGHT SOURCE 2018/11/02 2019/02/01 横浜国立大学
2413 2018JP008021 WO 2018159813 世界知的所有権機関(WIPO) MOTOR 2018/11/05 2019/02/01 横浜国立大学
2414 2019JP008494 WO 2019172213 世界知的所有権機関(WIPO) NANOPARTICLE, NANOPARTICLE PRODUCTION METHOD, AND ANTI-TUMOR AGENT 新技術説明会 2019/04/19 2019/10/23 横浜国立大学
2415 2019JP004425 WO 2019156170 世界知的所有権機関(WIPO) SHAPING APPARATUS, DROPLET MOVEMENT DEVICE, TARGET OBJECT PRODUCTION METHOD, DROPLET MOVEMENT METHOD, AND PROGRAM 2019/10/25 2019/10/25 横浜国立大学
2416 2019JP049449 WO 2020129989 世界知的所有権機関(WIPO) BILIRUBIN CONCENTRATION MEASUREMENT SYSTEM 新技術説明会 2020/07/31 2020/07/31 横浜国立大学
2417 2008JP051327 WO 2008/091013 世界知的所有権機関(WIPO) METHOD FOR PREPARATION OF CARTILAGE CELL 2011/05/13 2011/05/25 横浜市立大学
2418 52435908 9951312 アメリカ合衆国 Method for preparation of cartilage cell 2011/05/13 2018/07/19 横浜市立大学
2419 20097015300 101503939 大韓民国 Method for preparation of cartilage cell 2011/05/13 2015/09/04 横浜市立大学
2420 08704109 2119767 欧州特許庁(EPO) Method for preparation of cartilage cell 2011/05/13 2016/01/28 横浜市立大学
2421 2009JP058932 WO 2009139419 世界知的所有権機関(WIPO) HUMAN HEPATIC STEM CELL, METHOD FOR PREPARATION OF THE SAME, METHOD FOR INDUCTION OF DIFFERENTIATION OF THE SAME, AND METHOD FOR UTILIZATION OF THE SAME 2011/05/20 2019/04/24 横浜市立大学
2422 2009JP067942 WO 2010/044474 世界知的所有権機関(WIPO) THERAPEUTIC AGENT FOR HEPATITIS C 2011/05/20 2011/05/25 横浜市立大学
2423 2010JP063894 WO 2011/024677 世界知的所有権機関(WIPO) ELECTRODE MEMBER, ELECTRON ENERGY ANALYZER, PHOTOELECTRON ENERGY ANALYZER, AND TEMPERATURE MEASURING APPARATUS 2011/11/09 2011/12/01 横浜市立大学
2424 2008JP073164 WO 2009084472 世界知的所有権機関(WIPO) METHOD FOR DETECTING INTRACTABLE EPILEPSY DEVELOPED IN NEONATAL PERIOD AND INFANCY 2011/12/27 2019/04/24 横浜市立大学
2425 2009JP062140 WO 2010/001967 世界知的所有権機関(WIPO) CONSTRUCTION OF EXPRESSION SYSTEM FOR RNA POLYMERASE DERIVED FROM INFLUENZA VIRUS, CRYSTALLIZATION OF THE RNA POLYMERASE, AND SCREENING METHOD FOR ANTI-INFLUENZA AGENT 2011/12/27 2011/12/28 横浜市立大学
2426 2011JP052710 WO 2011/099502 世界知的所有権機関(WIPO) USE OF COMPOUND BINDING TO MSIN3B THAT SPECIFICALLY BINDS TO NEURON RESTRICTIVE SILENCER FACTOR (NRSF) 2012/03/27 2012/04/05 横浜市立大学
2427 2011JP053497 WO 2011/102461 世界知的所有権機関(WIPO) PROTEIN EXPRESSED SPECIFICALLY IN OVARIAN CLEAR CELL ADENOCARCINOMA AND USE APPLICATIONS THEREOF 2012/03/27 2012/04/05 横浜市立大学
2428 2011JP074098 WO 2012/056976 世界知的所有権機関(WIPO) MODULATOR OF ACTIVITY OF ADENYLATE CYCLASE 2012/04/18 2012/05/31 横浜市立大学
2429 2011JP074384 WO 2012057052 世界知的所有権機関(WIPO) USE OF PEPTIDYL-PROLYL ISOMERASE PIN1 FOR CONTROLLING STABLE MAINTENANCE AND RENEWAL OF STEM CELLS 2012/05/10 2019/04/24 横浜市立大学
2430 2012JP063248 WO 2012/165270 世界知的所有権機関(WIPO) GENE TARGETING VECTOR, METHOD FOR MANUFACTURING SAME, AND METHOD FOR USING SAME 新技術説明会 2012/12/19 2012/12/19 横浜市立大学
2431 2012JP066207 WO 2013005603 世界知的所有権機関(WIPO) AGENT FOR PREVENTION AND/OR TREATMENT OF ALLERGIC INFLAMMATION IN CONJUNCTIVA 2013/01/23 2019/04/24 横浜市立大学
2432 2012JP055498 WO 2012/118216 世界知的所有権機関(WIPO) AUXIN BIOSYNTHESIS INHIBITOR 2013/03/07 2013/03/07 横浜市立大学
2433 2012JP074840 WO 2013/047639 世界知的所有権機関(WIPO) METHOD FOR PRODUCING TISSUE AND ORGAN 2013/04/17 2013/04/17 横浜市立大学
2434 2012JP074927 WO 2013/047677 世界知的所有権機関(WIPO) LINEAR AMPLIFICATION METHOD FOR TRACE DNA FRAGMENT 2013/04/17 2013/04/17 横浜市立大学
2435 2012JP075019 WO 2013/047720 世界知的所有権機関(WIPO) METHOD FOR INDUCING HEPATOCELLULAR VARIATION, AND PRODUCTION METHOD FOR CHIMERIC NON-HUMAN ANIMAL HAVING HUMANIZED LIVER 2013/04/17 2013/04/17 横浜市立大学
2436 2007JP057048 WO 2007/119606 世界知的所有権機関(WIPO) METHOD FOR DETERMINATION OF PROGNOSIS OF PROSTATE CANCER, AND DIAGNOSTIC AGENT FOR USE IN THE METHOD 2013/04/24 2013/09/17 横浜市立大学
2437 2012JP063302 WO 2012165287 世界知的所有権機関(WIPO) PRODUCTION METHOD FOR ARTIFICIAL CANCER STEM CELL AND INDUCED DIFFERENTIATION METHOD THEREFOR 2013/06/20 2019/04/24 横浜市立大学
2438 2012JP069540 WO 2013/051330 世界知的所有権機関(WIPO) TREATMENT OF ATRIAL FIBRILLATION BY MEANS OF VIDARABINE 2013/07/18 2013/07/18 横浜市立大学
2439 2012JP083113 WO 2013103094 世界知的所有権機関(WIPO) METHOD FOR DETECTING COFFIN-SIRIS SYNDROME 2013/07/24 2019/04/24 横浜市立大学
2440 2012JP077903 WO 2013069495 世界知的所有権機関(WIPO) METHOD FOR PREDICTING RISK OF PORENCEPHALY OR CEREBRAL HEMORRHAGE 2013/12/05 2019/04/24 横浜市立大学
2441 2012JP082160 WO 2013089123 世界知的所有権機関(WIPO) GENE TARGETING VECTOR, AND METHOD FOR USING SAME 2014/01/08 2015/07/28 横浜市立大学
2442 2013JP081385 WO 2014080979 世界知的所有権機関(WIPO) METHOD FOR DETECTING NEUROLOGICAL DISEASE ACCOMPANIED BY INFLAMMATION AND/OR DEMYELINATION 2014/12/04 2019/04/24 横浜市立大学
2443 2014JP052860 WO 2014123213 世界知的所有権機関(WIPO) OXYGEN REDUCTION CATALYST, OXYGEN REDUCTION ELECTRODE, AND FUEL CELL 2015/03/24 2015/08/24 横浜市立大学
2444 2014JP059872 WO 2014163153 世界知的所有権機関(WIPO) MASS SPECTROMETRY METHOD AND MASS SPECTROMETRY DATA PROCESSOR 2015/03/26 2015/08/24 横浜市立大学
2445 2014JP057673 WO 2014148592 世界知的所有権機関(WIPO) METHOD FOR PREPARING CHONDROCYTES 2015/03/26 2015/08/24 横浜市立大学
2446 2014JP063181 WO 2014188994 世界知的所有権機関(WIPO) METHOD FOR AMPLIFYING CELL USING AMINO ACID PREPARATION 2015/03/27 2015/08/24 横浜市立大学
2447 2014JP003067 WO 2014199622 世界知的所有権機関(WIPO) TISSUE STRUCTURE AND MANUFACTURING METHOD THEREFOR 2015/04/03 2015/08/24 横浜市立大学
2448 2014JP065217 WO 2014199944 世界知的所有権機関(WIPO) METHOD FOR DETECTING INTRACTABLE EPILEPSY ACCOMPANYING SEVERE INTELLECTUAL DISABILITY AND MOTOR DEVELOPMENT RETARDATION 2015/04/03 2019/04/24 横浜市立大学
2449 2014JP068808 WO 2015012158 世界知的所有権機関(WIPO) METHOD FOR PROVIDING VASCULAR SYSTEM IN BIOLOGICAL TISSUE 2015/04/03 2015/08/24 横浜市立大学
2450 2014JP079296 WO 2015068712 世界知的所有権機関(WIPO) SUPERELASTIC MATERIAL AND ENERGY STORAGE MATERIAL, ENERGY ABSORPTION MATERIAL, ELASTIC MATERIAL, ACTUATOR, AND SHAPE MEMORY MATERIAL THAT USE SAID SUPERELASTIC MATERIAL 2015/07/13 2016/09/30 横浜市立大学
2451 2014JP082997 WO 2015093407 世界知的所有権機関(WIPO) METAL-BASED STRUCTURE OR NANOPARTICLES CONTAINING HYDROGEN, AND METHOD FOR PRODUCING SAME 2015/11/26 2015/11/26 横浜市立大学
2452 2014JP082086 WO 2015083779 世界知的所有権機関(WIPO) COFFIN-SIRIS SYNDROME DETECTION METHOD 2015/11/26 2019/04/24 横浜市立大学
2453 2015JP051226 WO 2015111544 世界知的所有権機関(WIPO) INCUBATOR, CELL CULTURE SYSTEM PROVIDED WITH SAME, AND METHOD FOR SUPPLYING HUMIDIFYING WATER 2015/11/26 2015/11/26 横浜市立大学
2454 2015JP055695 WO 2015129822 世界知的所有権機関(WIPO) METHOD FOR FABRICATING CELL AGGREGATE FOR SELF-ORGANIZATION 2015/11/26 2015/11/26 横浜市立大学
2455 2015JP053041 WO 2015119132 世界知的所有権機関(WIPO) METHOD FOR PREDICTING PROGRESSION OF PRE-CANCEROUS LESION 2015/11/26 2019/04/24 横浜市立大学
2456 2015JP055765 WO 2015137151 世界知的所有権機関(WIPO) SUPPORT TOOL AND BIOLOGICAL INFORMATION ACQUISITION SYSTEM 2015/11/26 2015/11/26 横浜市立大学
2457 2015JP054277 WO 2015137056 世界知的所有権機関(WIPO) PREVENTION OR TREATMENT OF PATENT DUCTUS ARTERIOSUS BY GLUTAMIC ACID 2015/11/26 2015/11/26 横浜市立大学
2458 2016JP051009 WO 2016121512 世界知的所有権機関(WIPO) METHOD FOR PREPARING BONE MARROW CELL AGGREGATE 2016/09/23 2019/02/01 横浜市立大学
2459 2016JP053940 WO 2016129631 世界知的所有権機関(WIPO) METHOD AND KIT FOR DETECTING KAWASAKI DISEASE 2016/09/23 2019/02/01 横浜市立大学
2460 2016JP064167 WO 2016182022 世界知的所有権機関(WIPO) TECHNIQUE FOR AGGREGATING MACROMOLECULES TOGETHER WITH CELLS 2017/01/19 2019/01/30 横浜市立大学
2461 2016JP069896 WO 2017006931 世界知的所有権機関(WIPO) NOVEL COMPOUND THAT SPECIFICALLY BINDS TO AMPA RECEPTOR 2017/03/29 2019/01/30 横浜市立大学
2462 2016JP074943 WO 2017034018 世界知的所有権機関(WIPO) GRAPHENE FILM, COMPOSITE BODY, METHOD FOR MANUFACTURING SAME, AND SINGLE-CRYSTAL SAPPHIRE SUBSTRATE 2017/03/29 2019/04/24 横浜市立大学
2463 2016JP080084 WO 2017065127 世界知的所有権機関(WIPO) BLOOD BIOMARKER FOR USE IN EVALUATION OF EFFECT OF DRUG THERAPY ON KIDNEY CANCER 2017/05/30 2019/04/24 横浜市立大学
2464 2016JP082390 WO 2017077999 世界知的所有権機関(WIPO) METHOD FOR DETECTING TUBERCULOSIS COMPLEX-DERIVED DNA 2017/05/30 2017/05/30 横浜市立大学
2465 2017JP018037 WO 2017195887 世界知的所有権機関(WIPO) SUGAR-CHAIN CONCENTRATION COLUMN AND SUGAR-CHAIN CONCENTRATION METHOD 2018/01/24 2018/01/24 横浜市立大学
2466 2017JP029658 WO 2018034346 世界知的所有権機関(WIPO) METHOD AND SYSTEM FOR ANALYZING N-LINKED SUGAR CHAINS OF GLYCOPROTEIN 2018/04/20 2019/04/24 横浜市立大学
2467 2017JP028236 WO 2018030270 世界知的所有権機関(WIPO) METHOD AND TEST PIECE FOR TESTING FOR KAWASAKI DISEASE 2018/04/20 2019/04/24 横浜市立大学
2468 2017JP037624 WO 2018074497 世界知的所有権機関(WIPO) ANTI-ATHEROSCLEROTIC AGENT AND SYMPTOM IDENTIFICATION METHOD FOR ARTERIOSCLEROSIS 新技術説明会 2018/07/31 2019/04/24 横浜市立大学
2469 2017JP042029 WO 2018097185 世界知的所有権機関(WIPO) CANCER TREATMENT APPARATUS 2018/07/31 2018/07/31 横浜市立大学
2470 2018JP000531 WO 2018131662 世界知的所有権機関(WIPO) PROPHYLACTIC AND/OR THERAPEUTIC AGENT FOR DISEASES ASSOCIATED WITH AMPA RECEPTORS 2018/11/02 2019/02/01 横浜市立大学
2471 2018JP008615 WO 2018164133 世界知的所有権機関(WIPO) CELL SORTING METHOD 2018/11/05 2019/02/01 横浜市立大学
2472 2018JP025539 WO 2019013094 世界知的所有権機関(WIPO) AGGRAVATION ESTIMATION DEVICE AND AGGRAVATION ESTIMATION PROGRAM 2019/05/07 2019/05/07 横浜市立大学
2473 2018JP039992 WO 2019087988 世界知的所有権機関(WIPO) CONSTRUCT HAVING STRUCTURE AND CELL MASS LINKED TOGETHER 2019/07/26 2019/07/26 横浜市立大学
2474 2019JP023599 WO 2019240247 世界知的所有権機関(WIPO) UNDIFFERENTIATED CELL DETECTION METHOD 2020/06/02 2020/06/02 横浜市立大学
2475 2012JP002129 WO 2013/144999 世界知的所有権機関(WIPO) NEURONAL CULTURE MEDIUM AND METHOD FOR PRODUCING IN VIVO-LIKE AND ENHANCED SYNAPTOGENESIS NEURON MODEL 2012/04/09 2013/10/16 沖縄科学技術大学院大学学園(OIST)
2476 2011JP058299 WO 2011/155253 世界知的所有権機関(WIPO) CELL SORTER, CELL-SORTING METHOD AND PROGRAM 2012/09/19 2012/09/19 沖縄科学技術大学院大学学園(OIST)
2477 2011JP058323 WO 2012/042952 世界知的所有権機関(WIPO) NETWORK MODEL INTEGRATION DEVICE, NETWORK MODEL INTEGRATION SYSTEM, NETWORK MODEL INTEGRATION METHOD, AND PROGRAM 2013/01/11 2013/01/11 沖縄科学技術大学院大学学園(OIST)
2478 2013JP073500 WO 2014034925 世界知的所有権機関(WIPO) METHOD FOR CONCENTRATING METAL COMPOUND 新技術説明会 2014/09/26 2015/08/24 法政大学
2479 2014JP057006 WO 2014142329 世界知的所有権機関(WIPO) NOVEL ORGANIC CHARGE TRANSFER COMPLEX AND MANUFACTURING METHOD THEREFOR 新技術説明会 2015/04/16 2015/07/22 法政大学
2480 2018JP017313 WO 2018203539 世界知的所有権機関(WIPO) METAL RECOVERY METHOD, METAL RECOVERY CARRIER, AND METAL RECOVERY BIOREACTOR USING SAME 新技術説明会 2019/02/19 2019/04/19 法政大学
2481 2010JP006114 WO 2011/045937 世界知的所有権機関(WIPO) METHOD AND MARKER FOR DETERMINATION OF DEGREE OF RISK OF ONSET OF HIGH-FUNCTIONING AUTISM 2010/11/30 2011/05/24 浜松医科大学
2482 2007JP056839 WO 2007/114238 世界知的所有権機関(WIPO) APPARATUS FOR DETERMINING BRAIN ATROPHY, METHOD OF DETERMINING BRAIN ATROPHY AND PROGRAM FOR DETERMINING BRAIN ATROPHY 2011/03/04 2011/03/22 浜松医科大学
2483 2008JP050139 WO 2008/093517 世界知的所有権機関(WIPO) DEVICE FOR DISPLAYING ASSISTANCE INFORMATION FOR SURGICAL OPERATION, METHOD FOR DISPLAYING ASSISTANCE INFORMATION FOR SURGICAL OPERATION, AND PROGRAM FOR DISPLAYING ASSISTANCE INFORMATION FOR SURGICAL OPERATION 2011/03/29 2011/03/29 浜松医科大学
2484 2009JP055171 WO 2009/116535 世界知的所有権機関(WIPO) SURGERY ASSISTANCE SYSTEM 2011/04/13 2011/04/25 浜松医科大学
2485 2010JP054364 WO 2010/113627 世界知的所有権機関(WIPO) HIGHLY SENSITIVE DETECTION METHOD FOR HIGHLY VIRULENT ORAL CAVITY BACTERIA 新技術説明会 2011/05/10 2011/05/24 浜松医科大学
2486 2010JP051706 WO 2010/137358 世界知的所有権機関(WIPO) LYMPHATIC PRESSURE-MEASURING SYSTEM AND METHOD FOR CONTROLLING SAME 2011/07/13 2011/08/01 浜松医科大学
2487 93323209 8849374 アメリカ合衆国 Surgery assistance system and optical axis position measurement device 2012/01/06 2018/07/18 浜松医科大学
2488 2011JP055688 WO 2011111790 世界知的所有権機関(WIPO) PRODUCTION OF ENTERITIS EVOKING CAUSAL FACTOR BY HIGHLY PATHOGENIC ORAL BACTERIA AND HIGH SENSITIVITY DETECTION METHOD THEREFOR 新技術説明会 2012/04/04 2019/04/22 浜松医科大学
2489 2010US062072 WO 2011/079304 世界知的所有権機関(WIPO) METHODS AND COMPOSITIONS RELATED TO ANNEXIN 1-BINDING COMPOUNDS 新技術説明会 2012/05/30 2013/09/17 浜松医科大学
2490 2012JP063998 WO 2012/165510 世界知的所有権機関(WIPO) RECOVERY OF REUSABLE OSMIUM TETROXIDE 2012/12/19 2012/12/19 浜松医科大学
2491 2012JP007348 WO 2013/073191 世界知的所有権機関(WIPO) THERAPEUTIC AGENT FOR EARLY DELIVERY OR ABORTION USING PLASMINOGEN ACTIVATOR INHIBITOR-1 新技術説明会 2013/07/19 2013/07/19 浜松医科大学
2492 2012JP074100 WO 2013/042743 世界知的所有権機関(WIPO) INDUCTION DEVICE, INSECT CAPTURE DEVICE, AND INSECT CAPTURE METHOD 2013/12/06 2013/12/06 浜松医科大学
2493 2013JP005538 WO 2014045582 世界知的所有権機関(WIPO) SPERM ACTIVATING AGENT AND ACTIVATING METHOD USING SAME 新技術説明会 2014/10/28 2015/08/24 浜松医科大学
2494 2013JP079495 WO 2014069553 世界知的所有権機関(WIPO) PELVIC ROTATION ANGLE CALCULATION DEVICE, PELVIC ROTATION ANGLE CALCULATION METHOD, DEVICE FOR ESTIMATING THREE-DIMENSIONAL SHAPE OF ACETABULAR COVERAGE, METHOD FOR ESTIMATING THREE-DIMENSIONAL SHAPE OF ACETABULAR COVERAGE, PELVIC ROTATION ANGLE CALCULATION PROGRAM, AND PROGRAM FOR ESTIMATING THREE-DIMENSIONAL SHAPE OF ACETABULAR COVERAGE 2015/02/09 2015/08/24 浜松医科大学
2495 2014JP057468 WO 2014148527 世界知的所有権機関(WIPO) LIGHT EMITTING DEVICE 2015/04/16 2015/08/24 浜松医科大学
2496 2014JP059780 WO 2014168064 世界知的所有権機関(WIPO) METHOD FOR INHIBITING PROLIFERATION OF HIGH LIX1L-EXPRESSING TUMOR CELL, AND TUMOR CELL PROLIFERATION-INHIBITING PEPTIDE 2015/04/22 2019/04/22 浜松医科大学
2497 2014US041912 WO 2014201118 世界知的所有権機関(WIPO) COMPOSITIONS AND METHODS FOR TARGETED ENDOMETRIOSIS TREATMENT 2015/10/05 2015/10/05 浜松医科大学
2498 2015JP061943 WO 2015170573 世界知的所有権機関(WIPO) LYMPH NODE IMAGING AGENT 新技術説明会 2016/02/05 2016/02/05 浜松医科大学
2499 2017JP014755 WO 2017183509 世界知的所有権機関(WIPO) BITE BLOCK 2018/04/17 2018/04/17 浜松医科大学
2500 2018JP003442 WO 2018143357 世界知的所有権機関(WIPO) METHOD FOR SCREENING SUBSTANCE HAVING HIGH AFFINITY FOR TARGET SUBSTANCE 2018/11/02 2019/01/31 浜松医科大学

PAGE TOP